createdAt,value
2019-04-27T00:01:24.410Z,36.42
2019-04-27T00:09:28.077Z,36.80
2019-04-27T00:12:03.484Z,37.51
2019-04-27T00:14:29.787Z,37.55
2019-04-27T00:17:14.804Z,36.80
2019-04-27T00:19:48.452Z,36.66
2019-04-27T00:22:33.484Z,36.42
2019-04-27T00:24:59.789Z,36.35
2019-04-27T00:27:26.045Z,36.98
2019-04-27T00:29:53.548Z,36.56
2019-04-27T00:32:20.060Z,36.40
2019-04-27T00:34:46.283Z,36.13
2019-04-27T00:37:14.362Z,35.88
2019-04-27T00:39:43.312Z,36.14
2019-04-27T00:42:10.224Z,37.03
2019-04-27T00:44:36.400Z,36.74
2019-04-27T00:47:04.608Z,36.60
2019-04-27T00:49:30.758Z,36.57
2019-04-27T00:51:56.915Z,36.52
2019-04-27T00:54:23.761Z,35.87
2019-04-27T00:57:10.374Z,36.58
2019-04-27T00:59:53.285Z,37.30
2019-04-27T01:02:23.118Z,39.00
2019-04-27T01:04:49.551Z,36.90
2019-04-27T01:07:15.952Z,36.54
2019-04-27T01:09:42.875Z,36.93
2019-04-27T01:12:09.893Z,36.73
2019-04-27T01:14:36.082Z,37.22
2019-04-27T01:17:02.466Z,37.28
2019-04-27T01:19:29.022Z,36.94
2019-04-27T01:21:55.216Z,37.17
2019-04-27T01:24:21.389Z,36.95
2019-04-27T01:27:04.325Z,36.68
2019-04-27T01:29:32.409Z,36.90
2019-04-27T01:31:59.013Z,37.52
2019-04-27T01:34:25.163Z,37.40
2019-04-27T01:36:51.336Z,37.59
2019-04-27T01:39:18.880Z,37.86
2019-04-27T01:41:45.499Z,38.17
2019-04-27T01:44:11.666Z,37.85
2019-04-27T01:46:39.597Z,38.12
2019-04-27T01:49:06.049Z,38.65
2019-04-27T01:51:32.246Z,38.69
2019-04-27T01:53:59.392Z,37.93
2019-04-27T01:56:25.908Z,37.49
2019-04-27T01:58:52.190Z,37.90
2019-04-27T02:01:20.762Z,38.17
2019-04-27T02:04:05.794Z,37.82
2019-04-27T02:06:32.052Z,37.62
2019-04-27T02:08:59.545Z,38.55
2019-04-27T02:11:25.939Z,38.58
2019-04-27T02:13:52.120Z,38.29
2019-04-27T02:16:18.801Z,38.21
2019-04-27T02:18:45.180Z,38.56
2019-04-27T02:21:11.341Z,38.62
2019-04-27T02:23:39.084Z,38.58
2019-04-27T02:26:05.624Z,39.06
2019-04-27T02:28:39.519Z,39.63
2019-04-27T02:31:09.856Z,39.30
2019-04-27T02:33:55.809Z,38.77
2019-04-27T02:36:21.984Z,39.37
2019-04-27T02:38:49.156Z,38.71
2019-04-27T02:41:15.635Z,38.72
2019-04-27T02:43:46.498Z,38.50
2019-04-27T02:46:12.796Z,39.18
2019-04-27T02:48:52.969Z,39.33
2019-04-27T02:51:10.023Z,39.17
2019-04-27T02:53:55.475Z,38.77
2019-04-27T02:56:22.467Z,38.35
2019-04-27T02:58:49.638Z,37.26
2019-04-27T03:01:16.118Z,37.67
2019-04-27T03:03:42.715Z,37.89
2019-04-27T03:06:09.814Z,37.57
2019-04-27T03:08:36.736Z,37.71
2019-04-27T03:11:03.037Z,37.67
2019-04-27T03:13:51.724Z,37.71
2019-04-27T03:16:20.306Z,37.71
2019-04-27T03:19:09.737Z,37.61
2019-04-27T03:21:23.629Z,37.73
2019-04-27T03:23:50.191Z,37.58
2019-04-27T03:26:21.566Z,37.31
2019-04-27T03:28:50.317Z,37.67
2019-04-27T03:31:16.138Z,37.32
2019-04-27T03:33:43.313Z,36.97
2019-04-27T03:36:12.998Z,37.18
2019-04-27T03:38:39.645Z,36.79
2019-04-27T03:41:05.846Z,36.42
2019-04-27T03:43:32.524Z,36.36
2019-04-27T03:46:00.530Z,36.04
2019-04-27T03:48:29.057Z,35.58
2019-04-27T03:51:02.611Z,34.73
2019-04-27T03:53:30.669Z,34.00
2019-04-27T03:56:00.002Z,33.68
2019-04-27T03:58:34.932Z,33.64
2019-04-27T04:01:01.081Z,34.02
2019-04-27T04:03:29.741Z,33.43
2019-04-27T04:05:55.375Z,33.13
2019-04-27T04:08:21.545Z,33.29
2019-04-27T04:11:01.719Z,32.48
2019-04-27T04:13:35.414Z,31.55
2019-04-27T04:16:07.344Z,32.49
2019-04-27T04:18:33.480Z,31.19
2019-04-27T04:21:00.418Z,28.73
2019-04-27T04:23:26.836Z,27.22
2019-04-27T04:25:53.003Z,26.60
2019-04-27T04:28:19.951Z,26.30
2019-04-27T04:30:46.574Z,26.65
2019-04-27T04:33:12.762Z,27.20
2019-04-27T04:35:39.757Z,26.66
2019-04-27T04:38:06.420Z,25.64
2019-04-27T04:40:37.160Z,23.58
2019-04-27T04:43:10.533Z,22.41
2019-04-27T04:45:40.260Z,21.79
2019-04-27T04:48:09.828Z,24.67
2019-04-27T04:50:36.211Z,24.37
2019-04-27T04:53:02.393Z,23.60
2019-04-27T04:55:30.679Z,25.09
2019-04-27T04:57:56.622Z,25.36
2019-04-27T05:00:22.905Z,26.48
2019-04-27T05:02:49.293Z,27.59
2019-04-27T05:05:15.572Z,26.79
2019-04-27T05:07:41.800Z,25.71
2019-04-27T05:10:09.030Z,24.11
2019-04-27T05:12:35.530Z,21.95
2019-04-27T05:15:01.818Z,20.45
2019-04-27T05:17:29.530Z,19.19
2019-04-27T05:19:56.373Z,17.89
2019-04-27T05:22:22.571Z,17.34
2019-04-27T05:24:50.643Z,17.53
2019-04-27T05:27:16.800Z,17.45
2019-04-27T05:29:43.009Z,17.60
2019-04-27T05:32:09.265Z,18.93
2019-04-27T05:34:35.444Z,19.56
2019-04-27T05:37:01.658Z,21.70
2019-04-27T05:39:29.782Z,21.92
2019-04-27T05:41:55.888Z,23.33
2019-04-27T05:44:24.090Z,22.57
2019-04-27T05:46:52.166Z,22.29
2019-04-27T05:49:23.034Z,21.84
2019-04-27T05:51:50.147Z,21.98
2019-04-27T05:54:16.506Z,21.71
2019-04-27T05:56:42.673Z,21.40
2019-04-27T05:59:09.261Z,21.57
2019-04-27T06:01:35.809Z,21.24
2019-04-27T06:04:02.097Z,21.68
2019-04-27T06:06:29.553Z,21.39
2019-04-27T06:08:56.373Z,22.67
2019-04-27T06:11:22.963Z,21.91
2019-04-27T06:13:49.366Z,21.24
2019-04-27T06:16:15.542Z,22.50
2019-04-27T06:18:41.830Z,21.71
2019-04-27T06:21:09.611Z,23.30
2019-04-27T06:23:36.180Z,23.30
2019-04-27T06:26:02.374Z,23.74
2019-04-27T06:28:29.322Z,24.46
2019-04-27T06:30:56.631Z,25.63
2019-04-27T06:33:32.020Z,25.30
2019-04-27T06:35:50.903Z,25.83
2019-04-27T06:38:17.054Z,24.94
2019-04-27T06:40:43.235Z,23.48
2019-04-27T06:43:09.421Z,23.40
2019-04-27T06:45:35.598Z,22.27
2019-04-27T06:48:01.771Z,24.14
2019-04-27T06:50:29.477Z,23.38
2019-04-27T06:52:55.838Z,23.99
2019-04-27T06:55:22.097Z,22.74
2019-04-27T06:57:49.085Z,21.77
2019-04-27T07:00:16.062Z,22.61
2019-04-27T07:02:42.238Z,22.73
2019-04-27T07:05:09.065Z,25.48
2019-04-27T07:07:35.395Z,25.70
2019-04-27T07:10:04.219Z,24.44
2019-04-27T07:12:30.407Z,23.03
2019-04-27T07:14:56.710Z,22.87
2019-04-27T07:17:22.865Z,24.08
2019-04-27T07:19:49.694Z,24.30
2019-04-27T07:22:16.115Z,24.17
2019-04-27T07:24:42.480Z,24.02
2019-04-27T07:27:09.369Z,24.11
2019-04-27T07:29:35.732Z,22.83
2019-04-27T07:32:01.908Z,24.59
2019-04-27T07:34:28.657Z,23.10
2019-04-27T07:36:56.168Z,24.21
2019-04-27T07:39:22.339Z,25.07
2019-04-27T07:41:48.895Z,25.09
2019-04-27T07:44:19.619Z,24.83
2019-04-27T07:46:47.687Z,23.77
2019-04-27T07:49:13.906Z,23.05
2019-04-27T07:51:40.059Z,24.91
2019-04-27T07:54:06.244Z,25.21
2019-04-27T07:56:32.453Z,24.63
2019-04-27T07:58:59.563Z,25.82
2019-04-27T08:01:25.996Z,23.15
2019-04-27T08:03:52.185Z,24.01
2019-04-27T08:06:18.958Z,24.34
2019-04-27T08:08:45.231Z,25.37
2019-04-27T08:11:11.510Z,25.47
2019-04-27T08:13:39.002Z,23.69
2019-04-27T08:16:05.822Z,22.80
2019-04-27T08:18:32.028Z,24.74
2019-04-27T08:20:59.091Z,23.19
2019-04-27T08:23:25.494Z,23.19
2019-04-27T08:25:51.711Z,23.14
2019-04-27T08:28:19.776Z,24.27
2019-04-27T08:31:04.217Z,22.12
2019-04-27T08:33:30.490Z,21.20
2019-04-27T08:35:56.641Z,21.78
2019-04-27T08:38:23.760Z,22.33
2019-04-27T08:40:49.954Z,24.11
2019-04-27T08:43:16.144Z,22.43
2019-04-27T08:45:42.340Z,22.47
2019-04-27T08:48:09.341Z,21.95
2019-04-27T08:50:37.843Z,21.50
2019-04-27T08:53:03.815Z,20.76
2019-04-27T08:55:29.997Z,21.33
2019-04-27T08:57:56.186Z,22.79
2019-04-27T09:00:22.382Z,23.51
2019-04-27T09:02:50.261Z,22.55
2019-04-27T09:05:19.275Z,21.97
2019-04-27T09:07:54.150Z,22.39
2019-04-27T09:10:25.625Z,22.31
2019-04-27T09:13:06.128Z,21.13
2019-04-27T09:18:24.678Z,19.33
2019-04-27T09:20:55.502Z,18.88
2019-04-27T09:23:21.661Z,17.61
2019-04-27T09:25:49.625Z,18.11
2019-04-27T09:28:16.132Z,19.09
2019-04-27T09:30:42.401Z,17.55
2019-04-27T09:33:08.610Z,19.25
2019-04-27T09:35:35.636Z,19.54
2019-04-27T09:38:02.122Z,19.47
2019-04-27T09:40:28.446Z,20.38
2019-04-27T09:42:54.620Z,20.73
2019-04-27T09:45:20.789Z,19.24
2019-04-27T09:47:47.002Z,18.28
2019-04-27T09:50:13.444Z,18.29
2019-04-27T09:52:39.596Z,17.95
2019-04-27T09:55:06.724Z,17.37
2019-04-27T09:57:34.174Z,17.81
2019-04-27T10:00:00.340Z,17.40
2019-04-27T10:02:26.952Z,17.72
2019-04-27T10:04:53.414Z,17.29
2019-04-27T10:07:19.567Z,17.40
2019-04-27T10:09:47.315Z,17.18
2019-04-27T10:12:13.801Z,15.11
2019-04-27T10:14:40.900Z,16.33
2019-04-27T10:17:07.096Z,15.13
2019-04-27T10:19:33.366Z,16.26
2019-04-27T10:21:59.536Z,15.91
2019-04-27T10:24:25.855Z,13.53
2019-04-27T10:26:52.027Z,15.87
2019-04-27T10:29:18.183Z,14.82
2019-04-27T10:31:46.353Z,15.07
2019-04-27T10:34:12.549Z,14.73
2019-04-27T10:36:38.704Z,14.45
2019-04-27T10:39:06.924Z,15.26
2019-04-27T10:41:33.096Z,14.37
2019-04-27T10:43:59.262Z,14.93
2019-04-27T10:46:25.846Z,13.36
2019-04-27T10:48:52.040Z,13.24
2019-04-27T10:51:18.205Z,12.42
2019-04-27T10:53:45.664Z,12.59
2019-04-27T10:56:12.004Z,16.16
2019-04-27T10:58:38.157Z,14.66
2019-04-27T11:01:06.263Z,15.67
2019-04-27T11:03:52.293Z,16.37
2019-04-27T11:06:20.392Z,16.10
2019-04-27T11:08:48.249Z,16.96
2019-04-27T11:11:14.735Z,15.75
2019-04-27T11:13:40.929Z,14.54
2019-04-27T11:16:07.589Z,15.25
2019-04-27T11:18:33.775Z,15.36
2019-04-27T11:20:59.986Z,14.22
2019-04-27T11:23:26.204Z,14.93
2019-04-27T11:25:52.418Z,14.97
2019-04-27T11:28:18.609Z,15.03
2019-04-27T11:30:44.762Z,14.34
2019-04-27T11:33:10.945Z,13.92
2019-04-27T11:35:39.056Z,13.81
2019-04-27T11:38:05.659Z,13.57
2019-04-27T11:40:31.881Z,13.65
2019-04-27T11:42:58.208Z,15.68
2019-04-27T11:45:24.465Z,15.66
2019-04-27T11:47:51.589Z,14.87
2019-04-27T11:50:19.211Z,16.13
2019-04-27T11:52:45.757Z,16.27
2019-04-27T11:55:12.664Z,15.05
2019-04-27T11:57:38.897Z,14.64
2019-04-27T12:00:08.614Z,14.30
2019-04-27T12:02:35.799Z,15.87
2019-04-27T12:05:07.953Z,15.48
2019-04-27T12:07:34.337Z,15.61
2019-04-27T12:10:00.512Z,14.81
2019-04-27T12:12:26.704Z,14.77
2019-04-27T12:14:52.976Z,14.54
2019-04-27T12:17:19.154Z,13.71
2019-04-27T12:19:46.462Z,13.92
2019-04-27T12:22:12.742Z,13.90
2019-04-27T12:24:38.928Z,14.22
2019-04-27T12:27:22.168Z,15.02
2019-04-27T12:30:06.616Z,15.29
2019-04-27T12:32:32.922Z,14.29
2019-04-27T12:34:59.096Z,14.68
2019-04-27T12:37:26.836Z,15.23
2019-04-27T12:39:55.455Z,16.14
2019-04-27T12:42:22.335Z,15.51
2019-04-27T12:44:48.490Z,14.65
2019-04-27T12:47:16.351Z,15.17
2019-04-27T12:49:42.688Z,15.34
2019-04-27T12:52:08.934Z,17.49
2019-04-27T12:54:37.027Z,19.49
2019-04-27T12:59:56.594Z,18.69
2019-04-27T13:02:24.948Z,18.43
2019-04-27T13:04:51.131Z,19.81
2019-04-27T13:07:17.336Z,20.45
2019-04-27T13:09:43.574Z,19.71
2019-04-27T13:12:09.761Z,18.49
2019-04-27T13:14:36.535Z,19.10
2019-04-27T13:17:03.032Z,18.84
2019-04-27T13:19:29.352Z,17.90
2019-04-27T13:21:55.942Z,18.38
2019-04-27T13:24:22.308Z,19.64
2019-04-27T13:26:48.466Z,19.53
2019-04-27T13:29:16.517Z,17.81
2019-04-27T13:31:42.743Z,19.73
2019-04-27T13:34:08.918Z,19.13
2019-04-27T13:36:36.647Z,18.89
2019-04-27T13:39:06.332Z,18.11
2019-04-27T13:41:32.985Z,17.42
2019-04-27T13:43:59.461Z,19.68
2019-04-27T13:49:37.816Z,18.51
2019-04-27T13:52:08.502Z,18.39
2019-04-27T13:54:34.660Z,19.22
2019-04-27T13:57:00.883Z,19.09
2019-04-27T13:59:27.064Z,22.22
2019-04-27T14:01:53.352Z,22.00
2019-04-27T14:04:19.575Z,19.71
2019-04-27T14:06:45.749Z,18.77
2019-04-27T14:09:12.745Z,19.37
2019-04-27T14:11:39.623Z,17.68
2019-04-27T14:14:05.800Z,19.54
2019-04-27T14:16:31.978Z,19.95
2019-04-27T14:18:59.437Z,20.74
2019-04-27T14:21:25.846Z,19.64
2019-04-27T14:23:52.011Z,21.00
2019-04-27T14:26:18.498Z,20.04
2019-04-27T14:28:45.018Z,20.88
2019-04-27T14:31:11.194Z,21.59
2019-04-27T14:33:39.618Z,20.66
2019-04-27T14:36:05.495Z,22.12
2019-04-27T14:38:31.682Z,22.19
2019-04-27T14:40:59.386Z,22.86
2019-04-27T14:43:25.861Z,21.68
2019-04-27T14:45:52.139Z,23.11
2019-04-27T14:48:18.597Z,21.89
2019-04-27T14:50:44.937Z,22.17
2019-04-27T14:53:11.159Z,24.80
2019-04-27T14:55:38.819Z,25.25
2019-04-27T14:58:05.360Z,26.18
2019-04-27T15:00:31.519Z,24.20
2019-04-27T15:02:59.144Z,24.36
2019-04-27T15:05:27.195Z,23.61
2019-04-27T15:07:54.645Z,23.45
2019-04-27T15:10:21.072Z,22.59
2019-04-27T15:12:47.461Z,25.10
2019-04-27T15:15:13.823Z,26.89
2019-04-27T15:17:40.239Z,25.04
2019-04-27T15:20:22.650Z,26.13
2019-04-27T15:22:56.742Z,25.51
2019-04-27T15:25:20.119Z,25.63
2019-04-27T15:27:50.096Z,26.27
2019-04-27T15:30:19.049Z,25.80
2019-04-27T15:32:52.991Z,26.44
2019-04-27T15:35:21.637Z,28.15
2019-04-27T15:37:49.948Z,27.09
2019-04-27T15:40:34.397Z,26.92
2019-04-27T15:43:02.498Z,26.93
2019-04-27T15:45:28.753Z,26.51
2019-04-27T15:47:55.021Z,27.09
2019-04-27T15:50:23.419Z,27.00
2019-04-27T15:52:49.399Z,27.19
2019-04-27T15:55:32.216Z,26.86
2019-04-27T15:57:48.758Z,26.68
2019-04-27T16:00:20.381Z,27.30
2019-04-27T16:02:49.304Z,27.70
2019-04-27T16:05:13.277Z,26.80
2019-04-27T16:07:39.440Z,29.42
2019-04-27T16:10:05.868Z,27.90
2019-04-27T16:12:34.534Z,28.05
2019-04-27T16:15:00.101Z,29.20
2019-04-27T16:17:28.647Z,28.75
2019-04-27T16:19:54.482Z,27.11
2019-04-27T16:22:22.615Z,27.60
2019-04-27T16:24:49.484Z,28.68
2019-04-27T16:27:18.076Z,29.42
2019-04-27T16:29:45.069Z,29.18
2019-04-27T16:32:11.559Z,30.18
2019-04-27T16:34:41.112Z,28.57
2019-04-27T16:37:05.829Z,30.52
2019-04-27T16:39:32.020Z,30.99
2019-04-27T16:41:58.778Z,32.27
2019-04-27T16:44:25.158Z,33.71
2019-04-27T16:46:51.455Z,31.94
2019-04-27T16:49:18.796Z,31.16
2019-04-27T16:51:45.125Z,31.45
2019-04-27T16:54:17.691Z,31.72
2019-04-27T16:56:39.524Z,32.54
2019-04-27T16:59:34.003Z,33.58
2019-04-27T17:01:33.995Z,33.65
2019-04-27T17:04:00.165Z,31.94
2019-04-27T17:06:29.537Z,33.18
2019-04-27T17:08:57.480Z,31.19
2019-04-27T17:11:24.178Z,31.24
2019-04-27T17:13:54.180Z,30.54
2019-04-27T17:16:24.613Z,32.58
2019-04-27T17:18:57.726Z,34.38
2019-04-27T17:21:23.498Z,35.36
2019-04-27T17:23:49.731Z,34.19
2019-04-27T17:26:21.893Z,35.26
2019-04-27T17:29:02.307Z,37.07
2019-04-27T17:31:30.373Z,38.74
2019-04-27T17:33:58.676Z,38.64
2019-04-27T17:36:26.579Z,40.30
2019-04-27T17:38:52.734Z,39.99
2019-04-27T17:41:19.507Z,40.64
2019-04-27T17:43:45.717Z,41.90
2019-04-27T17:46:13.210Z,42.37
2019-04-27T17:48:39.548Z,40.32
2019-04-27T17:51:06.055Z,41.00
2019-04-27T17:53:33.220Z,41.13
2019-04-27T17:56:05.663Z,42.39
2019-04-27T17:58:28.699Z,41.41
2019-04-27T18:00:55.039Z,42.19
2019-04-27T18:03:21.271Z,42.72
2019-04-27T18:05:50.568Z,41.49
2019-04-27T18:08:18.393Z,40.57
2019-04-27T18:10:43.687Z,40.59
2019-04-27T18:13:11.776Z,41.50
2019-04-27T18:15:38.815Z,39.40
2019-04-27T18:18:22.793Z,36.61
2019-04-27T18:20:50.020Z,37.25
2019-04-27T18:23:18.543Z,34.57
2019-04-27T18:25:52.640Z,37.05
2019-04-27T18:28:20.731Z,36.87
2019-04-27T18:31:00.663Z,38.34
2019-04-27T18:33:28.409Z,40.51
2019-04-27T18:35:58.911Z,40.08
2019-04-27T18:38:22.710Z,42.37
2019-04-27T18:40:48.888Z,46.38
2019-04-27T18:43:15.041Z,47.11
2019-04-27T18:45:44.900Z,48.08
2019-04-27T18:51:01.447Z,49.25
2019-04-27T18:53:29.502Z,48.77
2019-04-27T18:55:58.422Z,48.32
2019-04-27T18:58:23.765Z,48.71
2019-04-27T19:00:50.023Z,46.74
2019-04-27T19:03:16.193Z,45.30
2019-04-27T19:05:42.409Z,47.53
2019-04-27T19:08:09.076Z,48.15
2019-04-27T19:10:35.236Z,46.78
2019-04-27T19:13:01.450Z,47.55
2019-04-27T19:15:28.531Z,45.55
2019-04-27T19:17:54.905Z,45.99
2019-04-27T19:20:21.350Z,47.35
2019-04-27T19:22:49.034Z,46.31
2019-04-27T19:25:18.322Z,46.13
2019-04-27T19:28:03.007Z,46.40
2019-04-27T19:30:33.598Z,47.67
2019-04-27T19:32:59.896Z,49.10
2019-04-27T19:35:26.081Z,48.65
2019-04-27T19:37:52.266Z,48.13
2019-04-27T19:40:18.740Z,48.28
2019-04-27T19:42:45.026Z,49.19
2019-04-27T19:45:11.208Z,49.25
2019-04-27T19:47:38.388Z,50.54
2019-04-27T19:50:05.675Z,49.11
2019-04-27T19:52:31.837Z,50.92
2019-04-27T19:54:58.542Z,48.83
2019-04-27T19:57:34.898Z,47.86
2019-04-27T19:59:56.111Z,47.87
2019-04-27T20:02:22.392Z,47.36
2019-04-27T20:04:50.571Z,44.15
2019-04-27T20:07:18.184Z,43.91
2019-04-27T20:09:49.991Z,44.13
2019-04-27T20:12:16.522Z,45.38
2019-04-27T20:14:54.682Z,45.62
2019-04-27T20:17:22.365Z,46.17
2019-04-27T20:19:48.879Z,47.46
2019-04-27T20:22:15.032Z,45.81
2019-04-27T20:24:43.999Z,46.31
2019-04-27T20:27:10.901Z,44.59
2019-04-27T20:29:37.293Z,43.71
2019-04-27T20:32:03.589Z,42.15
2019-04-27T20:34:31.065Z,41.32
2019-04-27T20:36:57.308Z,41.77
2019-04-27T20:39:23.517Z,41.75
2019-04-27T20:41:51.137Z,42.65
2019-04-27T20:44:17.470Z,42.06
2019-04-27T20:46:43.767Z,40.58
2019-04-27T20:49:14.696Z,41.64
2019-04-27T20:52:00.962Z,41.40
2019-04-27T20:54:27.265Z,40.49
2019-04-27T20:56:59.197Z,40.17
2019-04-27T20:59:25.416Z,40.26
2019-04-27T21:01:51.670Z,39.86
2019-04-27T21:04:20.962Z,40.25
2019-04-27T21:06:51.869Z,39.76
2019-04-27T21:09:18.628Z,39.55
2019-04-27T21:11:45.915Z,39.73
2019-04-27T21:14:12.499Z,38.78
2019-04-27T21:16:38.653Z,39.35
2019-04-27T21:19:05.092Z,39.38
2019-04-27T21:21:31.529Z,41.88
2019-04-27T21:23:57.679Z,43.36
2019-04-27T21:26:23.957Z,45.63
2019-04-27T21:28:51.342Z,46.18
2019-04-27T21:31:17.726Z,46.63
2019-04-27T21:33:43.878Z,44.59
2019-04-27T21:36:11.706Z,44.26
2019-04-27T21:38:38.143Z,44.30
2019-04-27T21:41:04.315Z,43.45
2019-04-27T21:43:30.540Z,42.72
2019-04-27T21:45:56.692Z,42.87
2019-04-27T21:48:22.857Z,43.60
2019-04-27T21:50:49.079Z,42.78
2019-04-27T21:53:21.173Z,42.46
2019-04-27T21:55:50.749Z,42.75
2019-04-27T21:58:28.387Z,43.04
2019-04-27T22:00:47.457Z,44.73
2019-04-27T22:03:15.511Z,43.34
2019-04-27T22:05:41.876Z,42.66
2019-04-27T22:08:08.115Z,42.44
2019-04-27T22:10:34.417Z,41.86
2019-04-27T22:13:01.813Z,41.84
2019-04-27T22:15:28.175Z,42.31
2019-04-27T22:17:54.335Z,42.23
2019-04-27T22:20:20.855Z,42.36
2019-04-27T22:22:48.935Z,41.49
2019-04-27T22:25:15.194Z,40.41
2019-04-27T22:27:41.517Z,40.58
2019-04-27T22:30:08.063Z,40.37
2019-04-27T22:32:34.261Z,40.47
2019-04-27T22:35:00.471Z,39.45
2019-04-27T22:37:26.623Z,39.35
2019-04-27T22:40:03.465Z,39.44
2019-04-27T22:42:41.560Z,39.93
2019-04-27T22:45:09.803Z,41.00
2019-04-27T22:47:35.957Z,41.63
2019-04-27T22:50:04.140Z,42.16
2019-04-27T22:52:30.805Z,43.99
2019-04-27T22:54:57.129Z,44.67
2019-04-27T22:57:25.202Z,45.25
2019-04-27T22:59:59.176Z,46.04
2019-04-27T23:02:31.725Z,46.56
2019-04-27T23:05:01.767Z,46.31
2019-04-27T23:07:27.875Z,46.24
2019-04-27T23:09:54.023Z,46.67
2019-04-27T23:12:21.337Z,46.21
2019-04-27T23:14:48.399Z,45.29
2019-04-27T23:17:34.624Z,44.82
2019-04-27T23:20:01.502Z,45.92
2019-04-27T23:22:27.798Z,44.63
2019-04-27T23:24:54.053Z,43.29
2019-04-27T23:27:21.593Z,43.57
2019-04-27T23:29:47.928Z,43.38
2019-04-27T23:32:18.748Z,43.38
2019-04-27T23:34:44.927Z,43.32
2019-04-27T23:37:11.107Z,43.91
2019-04-27T23:39:37.260Z,45.62
2019-04-27T23:42:06.818Z,45.75
2019-04-27T23:44:31.530Z,48.19
2019-04-27T23:46:57.683Z,47.52
2019-04-27T23:49:23.900Z,45.57
2019-04-27T23:51:51.979Z,44.18
2019-04-27T23:54:18.135Z,43.75
2019-04-27T23:56:44.438Z,42.79
2019-04-27T23:59:23.840Z,42.18
